sensor_id;sensor_type;location;lat;lon;timestamp;P1;durP1;ratioP1;P2;durP2;ratioP2
7545;SDS011;3814;51.454;12.616;2022-09-29T08:07:55;10.95;;;5.97;;
7545;SDS011;3814;51.454;12.616;2022-09-29T08:10:39;10.35;;;5.53;;
7545;SDS011;3814;51.454;12.616;2022-09-29T08:51:45;11.77;;;5.65;;
7545;SDS011;3814;51.454;12.616;2022-09-29T08:54:46;12.35;;;6.18;;
7545;SDS011;3814;51.454;12.616;2022-09-29T08:57:16;9.57;;;6.30;;
7545;SDS011;3814;51.454;12.616;2022-09-29T08:59:52;11.23;;;6.05;;
7545;SDS011;3814;51.454;12.616;2022-09-29T09:05:13;10.07;;;5.65;;
7545;SDS011;3814;51.454;12.616;2022-09-29T09:08:02;15.23;;;6.30;;
7545;SDS011;3814;51.454;12.616;2022-09-29T09:11:23;10.55;;;6.43;;
7545;SDS011;3814;51.454;12.616;2022-09-29T09:16:29;11.27;;;6.07;;
7545;SDS011;3814;51.454;12.616;2022-09-29T09:21:32;11.70;;;6.13;;
7545;SDS011;3814;51.454;12.616;2022-09-29T09:24:27;10.70;;;6.22;;
7545;SDS011;3814;51.454;12.616;2022-09-29T09:26:55;9.68;;;5.75;;
7545;SDS011;3814;51.454;12.616;2022-09-29T09:29:33;11.07;;;5.55;;
7545;SDS011;3814;51.454;12.616;2022-09-29T09:37:20;9.05;;;5.53;;
7545;SDS011;3814;51.454;12.616;2022-09-29T09:40:12;11.43;;;5.70;;
7545;SDS011;3814;51.454;12.616;2022-09-29T09:42:41;9.50;;;4.85;;
7545;SDS011;3814;51.454;12.616;2022-09-29T09:48:11;10.40;;;5.50;;
7545;SDS011;3814;51.454;12.616;2022-09-29T09:50:45;9.20;;;4.55;;
7545;SDS011;3814;51.454;12.616;2022-09-29T09:53:35;7.15;;;4.28;;
7545;SDS011;3814;51.454;12.616;2022-09-29T09:56:08;9.48;;;4.70;;
7545;SDS011;3814;51.454;12.616;2022-09-29T10:01:31;8.60;;;4.95;;
7545;SDS011;3814;51.454;12.616;2022-09-29T10:03:56;9.45;;;5.00;;
7545;SDS011;3814;51.454;12.616;2022-09-29T10:50:25;5.97;;;3.60;;
7545;SDS011;3814;51.454;12.616;2022-09-29T13:18:30;4.40;;;3.15;;
7545;SDS011;3814;51.454;12.616;2022-09-29T13:54:39;4.30;;;3.05;;
7545;SDS011;3814;51.454;12.616;2022-09-29T14:10:43;4.60;;;3.10;;
7545;SDS011;3814;51.454;12.616;2022-09-29T14:13:16;4.40;;;2.90;;
7545;SDS011;3814;51.454;12.616;2022-09-29T14:15:45;5.70;;;3.20;;
7545;SDS011;3814;51.454;12.616;2022-09-29T14:18:31;6.97;;;3.80;;
7545;SDS011;3814;51.454;12.616;2022-09-29T14:21:02;4.63;;;3.28;;
7545;SDS011;3814;51.454;12.616;2022-09-29T14:27:10;4.88;;;3.03;;
7545;SDS011;3814;51.454;12.616;2022-09-29T14:29:21;4.57;;;2.97;;
7545;SDS011;3814;51.454;12.616;2022-09-29T14:31:53;4.72;;;3.00;;
7545;SDS011;3814;51.454;12.616;2022-09-29T14:36:47;5.07;;;2.97;;
7545;SDS011;3814;51.454;12.616;2022-09-29T14:39:14;5.53;;;3.22;;
7545;SDS011;3814;51.454;12.616;2022-09-29T14:41:40;6.55;;;3.08;;
7545;SDS011;3814;51.454;12.616;2022-09-29T14:44:08;6.22;;;3.58;;
7545;SDS011;3814;51.454;12.616;2022-09-29T14:46:43;5.60;;;3.65;;
7545;SDS011;3814;51.454;12.616;2022-09-29T15:00:48;5.22;;;3.28;;
7545;SDS011;3814;51.454;12.616;2022-09-29T15:03:26;5.03;;;3.33;;
7545;SDS011;3814;51.454;12.616;2022-09-29T15:06:10;4.72;;;3.53;;
7545;SDS011;3814;51.454;12.616;2022-09-29T15:08:37;5.25;;;3.17;;
7545;SDS011;3814;51.454;12.616;2022-09-29T15:11:21;5.30;;;3.40;;
7545;SDS011;3814;51.454;12.616;2022-09-29T15:13:48;6.38;;;3.85;;
7545;SDS011;3814;51.454;12.616;2022-09-29T15:16:48;5.93;;;3.45;;
7545;SDS011;3814;51.454;12.616;2022-09-29T15:21:42;7.45;;;3.92;;
7545;SDS011;3814;51.454;12.616;2022-09-29T15:35:04;5.10;;;3.45;;
7545;SDS011;3814;51.454;12.616;2022-09-29T15:40:15;5.68;;;3.10;;
7545;SDS011;3814;51.454;12.616;2022-09-29T15:42:45;5.45;;;3.30;;
7545;SDS011;3814;51.454;12.616;2022-09-29T15:45:14;4.63;;;3.22;;
7545;SDS011;3814;51.454;12.616;2022-09-29T15:47:42;5.75;;;3.00;;
7545;SDS011;3814;51.454;12.616;2022-09-29T17:02:51;4.32;;;2.55;;
7545;SDS011;3814;51.454;12.616;2022-09-29T19:35:26;6.88;;;4.65;;
7545;SDS011;3814;51.454;12.616;2022-09-29T19:37:52;7.07;;;5.00;;
7545;SDS011;3814;51.454;12.616;2022-09-29T19:40:25;8.02;;;4.90;;
7545;SDS011;3814;51.454;12.616;2022-09-29T19:42:52;7.95;;;5.10;;
7545;SDS011;3814;51.454;12.616;2022-09-29T19:45:18;7.28;;;4.60;;
7545;SDS011;3814;51.454;12.616;2022-09-29T19:47:46;7.80;;;4.97;;
7545;SDS011;3814;51.454;12.616;2022-09-29T19:50:17;8.43;;;5.03;;
7545;SDS011;3814;51.454;12.616;2022-09-29T19:53:01;7.65;;;4.80;;
7545;SDS011;3814;51.454;12.616;2022-09-29T19:55:26;7.60;;;4.60;;
7545;SDS011;3814;51.454;12.616;2022-09-29T19:57:52;6.55;;;4.63;;
7545;SDS011;3814;51.454;12.616;2022-09-29T20:00:18;7.57;;;4.68;;
7545;SDS011;3814;51.454;12.616;2022-09-29T20:02:44;7.13;;;4.50;;
7545;SDS011;3814;51.454;12.616;2022-09-29T20:05:11;7.90;;;4.60;;
7545;SDS011;3814;51.454;12.616;2022-09-29T20:07:37;8.15;;;5.28;;
7545;SDS011;3814;51.454;12.616;2022-09-29T20:10:10;8.63;;;4.93;;
7545;SDS011;3814;51.454;12.616;2022-09-29T20:12:37;6.80;;;4.45;;
7545;SDS011;3814;51.454;12.616;2022-09-29T20:15:03;7.40;;;4.78;;
7545;SDS011;3814;51.454;12.616;2022-09-29T20:17:31;7.63;;;4.70;;
7545;SDS011;3814;51.454;12.616;2022-09-29T20:19:57;7.60;;;4.80;;
7545;SDS011;3814;51.454;12.616;2022-09-29T20:22:22;8.55;;;4.50;;
7545;SDS011;3814;51.454;12.616;2022-09-29T20:24:50;9.10;;;4.68;;
7545;SDS011;3814;51.454;12.616;2022-09-29T20:27:16;7.70;;;4.82;;
7545;SDS011;3814;51.454;12.616;2022-09-29T20:29:41;7.00;;;4.63;;
7545;SDS011;3814;51.454;12.616;2022-09-29T20:32:06;8.13;;;4.70;;
7545;SDS011;3814;51.454;12.616;2022-09-29T20:34:33;8.43;;;4.90;;
7545;SDS011;3814;51.454;12.616;2022-09-29T20:36:58;9.68;;;5.13;;
7545;SDS011;3814;51.454;12.616;2022-09-29T20:39:24;8.77;;;5.45;;
7545;SDS011;3814;51.454;12.616;2022-09-29T20:41:49;9.45;;;5.00;;
7545;SDS011;3814;51.454;12.616;2022-09-29T20:44:17;7.25;;;4.78;;
7545;SDS011;3814;51.454;12.616;2022-09-29T20:46:47;8.20;;;5.05;;
7545;SDS011;3814;51.454;12.616;2022-09-29T20:49:14;8.32;;;4.90;;
7545;SDS011;3814;51.454;12.616;2022-09-29T20:51:40;10.55;;;6.03;;
7545;SDS011;3814;51.454;12.616;2022-09-29T20:54:05;9.63;;;5.82;;
7545;SDS011;3814;51.454;12.616;2022-09-29T20:56:31;8.65;;;5.65;;
7545;SDS011;3814;51.454;12.616;2022-09-29T20:59:04;12.00;;;6.78;;
7545;SDS011;3814;51.454;12.616;2022-09-29T21:01:30;11.13;;;6.38;;
7545;SDS011;3814;51.454;12.616;2022-09-29T21:06:26;10.95;;;6.40;;
7545;SDS011;3814;51.454;12.616;2022-09-29T21:08:52;11.13;;;6.45;;
7545;SDS011;3814;51.454;12.616;2022-09-29T21:11:18;9.63;;;5.82;;
7545;SDS011;3814;51.454;12.616;2022-09-29T21:13:45;9.77;;;6.15;;
7545;SDS011;3814;51.454;12.616;2022-09-29T21:16:15;8.68;;;5.53;;
7545;SDS011;3814;51.454;12.616;2022-09-29T21:18:40;9.13;;;5.82;;
7545;SDS011;3814;51.454;12.616;2022-09-29T21:21:06;9.00;;;5.72;;
7545;SDS011;3814;51.454;12.616;2022-09-29T21:23:38;10.32;;;6.05;;
7545;SDS011;3814;51.454;12.616;2022-09-29T21:28:30;8.98;;;5.53;;
7545;SDS011;3814;51.454;12.616;2022-09-29T21:31:00;8.80;;;5.38;;
7545;SDS011;3814;51.454;12.616;2022-09-29T21:33:29;9.80;;;6.00;;
7545;SDS011;3814;51.454;12.616;2022-09-29T21:35:58;9.75;;;6.25;;
7545;SDS011;3814;51.454;12.616;2022-09-29T21:38:26;9.57;;;5.82;;
7545;SDS011;3814;51.454;12.616;2022-09-29T21:41:01;10.02;;;6.13;;
7545;SDS011;3814;51.454;12.616;2022-09-29T21:43:27;10.98;;;6.35;;
7545;SDS011;3814;51.454;12.616;2022-09-29T21:45:53;10.73;;;6.10;;
7545;SDS011;3814;51.454;12.616;2022-09-29T21:48:24;11.07;;;5.65;;
7545;SDS011;3814;51.454;12.616;2022-09-29T21:50:49;11.48;;;5.97;;
7545;SDS011;3814;51.454;12.616;2022-09-29T21:53:14;11.02;;;5.93;;
7545;SDS011;3814;51.454;12.616;2022-09-29T21:55:40;9.95;;;6.05;;
7545;SDS011;3814;51.454;12.616;2022-09-29T21:58:07;13.10;;;6.68;;
7545;SDS011;3814;51.454;12.616;2022-09-29T22:00:33;10.95;;;6.32;;
7545;SDS011;3814;51.454;12.616;2022-09-29T22:02:58;10.93;;;6.18;;
7545;SDS011;3814;51.454;12.616;2022-09-29T22:05:23;10.40;;;6.05;;
7545;SDS011;3814;51.454;12.616;2022-09-29T22:07:49;10.68;;;5.80;;
7545;SDS011;3814;51.454;12.616;2022-09-29T22:10:14;13.23;;;6.43;;
7545;SDS011;3814;51.454;12.616;2022-09-29T22:12:39;10.45;;;6.35;;
7545;SDS011;3814;51.454;12.616;2022-09-29T22:15:05;12.88;;;6.10;;
7545;SDS011;3814;51.454;12.616;2022-09-29T22:17:31;11.38;;;6.63;;
7545;SDS011;3814;51.454;12.616;2022-09-29T22:19:58;11.30;;;6.60;;
7545;SDS011;3814;51.454;12.616;2022-09-29T22:22:23;14.23;;;6.90;;
7545;SDS011;3814;51.454;12.616;2022-09-29T22:24:48;11.25;;;6.43;;
7545;SDS011;3814;51.454;12.616;2022-09-29T22:27:14;12.38;;;6.60;;
7545;SDS011;3814;51.454;12.616;2022-09-29T22:29:40;10.13;;;6.53;;
7545;SDS011;3814;51.454;12.616;2022-09-29T22:32:05;10.07;;;6.13;;
7545;SDS011;3814;51.454;12.616;2022-09-29T22:34:30;10.95;;;6.57;;
7545;SDS011;3814;51.454;12.616;2022-09-29T22:36:56;12.45;;;7.07;;
7545;SDS011;3814;51.454;12.616;2022-09-29T22:39:21;13.88;;;6.70;;
7545;SDS011;3814;51.454;12.616;2022-09-29T22:41:48;12.20;;;6.55;;
7545;SDS011;3814;51.454;12.616;2022-09-29T22:44:14;13.02;;;6.90;;
7545;SDS011;3814;51.454;12.616;2022-09-29T22:46:41;11.98;;;6.50;;
7545;SDS011;3814;51.454;12.616;2022-09-29T22:49:06;12.20;;;6.78;;
7545;SDS011;3814;51.454;12.616;2022-09-29T22:51:32;12.57;;;7.10;;
7545;SDS011;3814;51.454;12.616;2022-09-29T22:53:57;11.85;;;6.55;;
7545;SDS011;3814;51.454;12.616;2022-09-29T22:56:23;12.30;;;6.38;;
7545;SDS011;3814;51.454;12.616;2022-09-29T22:58:52;9.52;;;6.22;;
7545;SDS011;3814;51.454;12.616;2022-09-29T23:04:46;12.10;;;6.28;;
7545;SDS011;3814;51.454;12.616;2022-09-29T23:07:12;14.55;;;7.40;;
7545;SDS011;3814;51.454;12.616;2022-09-29T23:09:37;12.85;;;7.35;;
7545;SDS011;3814;51.454;12.616;2022-09-29T23:12:02;11.95;;;7.00;;
7545;SDS011;3814;51.454;12.616;2022-09-29T23:14:28;12.70;;;7.20;;
7545;SDS011;3814;51.454;12.616;2022-09-29T23:16:53;13.43;;;7.20;;
7545;SDS011;3814;51.454;12.616;2022-09-29T23:19:18;13.43;;;7.32;;
7545;SDS011;3814;51.454;12.616;2022-09-29T23:21:44;13.18;;;7.55;;
7545;SDS011;3814;51.454;12.616;2022-09-29T23:24:09;14.00;;;7.63;;
7545;SDS011;3814;51.454;12.616;2022-09-29T23:26:34;13.70;;;8.30;;
7545;SDS011;3814;51.454;12.616;2022-09-29T23:29:00;14.25;;;7.72;;
7545;SDS011;3814;51.454;12.616;2022-09-29T23:31:27;12.38;;;6.88;;
7545;SDS011;3814;51.454;12.616;2022-09-29T23:33:53;12.93;;;7.35;;
7545;SDS011;3814;51.454;12.616;2022-09-29T23:36:19;12.05;;;6.88;;
7545;SDS011;3814;51.454;12.616;2022-09-29T23:38:46;10.73;;;6.25;;
7545;SDS011;3814;51.454;12.616;2022-09-29T23:41:30;12.15;;;7.00;;
7545;SDS011;3814;51.454;12.616;2022-09-29T23:43:57;13.07;;;6.68;;
7545;SDS011;3814;51.454;12.616;2022-09-29T23:46:24;11.68;;;6.38;;
7545;SDS011;3814;51.454;12.616;2022-09-29T23:48:50;11.75;;;6.45;;
7545;SDS011;3814;51.454;12.616;2022-09-29T23:51:16;13.35;;;6.88;;
7545;SDS011;3814;51.454;12.616;2022-09-29T23:53:42;11.45;;;6.70;;
7545;SDS011;3814;51.454;12.616;2022-09-29T23:56:08;11.15;;;6.82;;
7545;SDS011;3814;51.454;12.616;2022-09-29T23:58:34;11.60;;;6.78;;
